Time;durP1;ratioP1;P1;durP2;ratioP2;P2;SDS_P1;SDS_P2;PMS_P1;PMS_P2;Temp;Humidity;BMP_temperature;BMP_pressure;BME280_temperature;BME280_humidity;BME280_pressure;Samples;Min_cycle;Max_cycle;Signal;HPM_P1;HPM_P2
2023/07/05 00:01:11;;;;;;;6.60;4.70;;;;;;;;;;5143434;27;20193;-66
2023/07/05 00:03:37;;;;;;;8.43;4.13;;;;;;;;;;5144023;27;20485;-66
2023/07/05 00:06:04;;;;;;;5.53;4.20;;;;;;;;;;5143183;27;20218;-66
2023/07/05 00:08:30;;;;;;;7.97;4.20;;;;;;;;;;5143650;27;20474;-66
2023/07/05 00:11:03;;;;;;;8.32;4.20;;;;;;;;;;5143463;27;20194;-66
2023/07/05 00:13:29;;;;;;;5.88;3.97;;;;;;;;;;5143403;27;20202;-67
2023/07/05 00:15:55;;;;;;;4.50;4.03;;;;;;;;;;5143464;27;20195;-67
2023/07/05 00:18:21;;;;;;;6.80;4.22;;;;;;;;;;5143115;27;20194;-68
2023/07/05 00:20:48;;;;;;;8.85;4.10;;;;;;;;;;5142937;27;20202;-68
2023/07/05 00:23:14;;;;;;;4.40;3.67;;;;;;;;;;5143552;27;20509;-68
2023/07/05 00:25:40;;;;;;;5.97;4.35;;;;;;;;;;5143256;27;20240;-68
2023/07/05 00:28:08;;;;;;;4.47;4.13;;;;;;;;;;5143203;27;20215;-68
2023/07/05 00:30:34;;;;;;;5.85;4.13;;;;;;;;;;5143309;27;20197;-67
2023/07/05 00:33:00;;;;;;;4.32;3.90;;;;;;;;;;5142827;27;20307;-67
2023/07/05 00:35:27;;;;;;;6.70;4.70;;;;;;;;;;5143192;27;20190;-67
2023/07/05 00:37:53;;;;;;;5.38;3.97;;;;;;;;;;5143311;27;20194;-67
2023/07/05 00:40:19;;;;;;;4.93;3.90;;;;;;;;;;5143105;27;20502;-67
2023/07/05 00:42:46;;;;;;;5.50;4.38;;;;;;;;;;5145020;27;20194;-67
2023/07/05 00:45:36;;;;;;;4.78;4.15;;;;;;;;;;5147360;27;20213;-68
2023/07/05 00:48:04;;;;;;;8.73;4.13;;;;;;;;;;5147560;27;20186;-67
2023/07/05 00:50:35;;;;;;;4.20;3.85;;;;;;;;;;5147356;27;20203;-67
2023/07/05 00:53:01;;;;;;;4.70;3.63;;;;;;;;;;5147162;27;20221;-67
2023/07/05 00:55:27;;;;;;;6.28;3.90;;;;;;;;;;5147216;27;20208;-67
2023/07/05 00:57:54;;;;;;;5.22;4.35;;;;;;;;;;5147098;27;20201;-67
2023/07/05 01:00:22;;;;;;;6.43;4.20;;;;;;;;;;5146869;27;20206;-66
2023/07/05 01:02:50;;;;;;;5.40;3.65;;;;;;;;;;5146897;27;20392;-66
2023/07/05 01:05:18;;;;;;;5.95;4.20;;;;;;;;;;5146818;27;20198;-66
2023/07/05 01:07:45;;;;;;;9.38;4.00;;;;;;;;;;5146910;27;20194;-66
2023/07/05 01:10:16;;;;;;;7.13;3.97;;;;;;;;;;5146860;27;20230;-66
2023/07/05 01:12:45;;;;;;;8.55;4.30;;;;;;;;;;5146640;27;20396;-66
2023/07/05 01:15:14;;;;;;;11.43;4.70;;;;;;;;;;5146658;27;20216;-67
2023/07/05 01:17:44;;;;;;;5.88;4.53;;;;;;;;;;5146987;27;20195;-67
2023/07/05 01:20:18;;;;;;;6.90;4.35;;;;;;;;;;5146910;27;20194;-67
2023/07/05 01:22:57;;;;;;;4.45;4.15;;;;;;;;;;5146408;27;20449;-67
2023/07/05 01:25:31;;;;;;;8.73;4.32;;;;;;;;;;5146661;27;20194;-68
2023/07/05 01:28:06;;;;;;;4.40;4.00;;;;;;;;;;5146522;27;20254;-67
2023/07/05 01:30:50;;;;;;;4.70;4.30;;;;;;;;;;5145915;27;20201;-67
2023/07/05 01:33:20;;;;;;;5.03;4.07;;;;;;;;;;5146337;27;20276;-67
2023/07/05 01:35:49;;;;;;;5.93;5.15;;;;;;;;;;5146508;27;20205;-67
2023/07/05 01:38:15;;;;;;;7.25;4.32;;;;;;;;;;5146569;27;20194;-67
2023/07/05 01:40:52;;;;;;;6.10;4.55;;;;;;;;;;5146078;27;20201;-67
2023/07/05 01:43:19;;;;;;;6.03;3.92;;;;;;;;;;5146561;27;20229;-67
2023/07/05 01:45:47;;;;;;;4.85;4.13;;;;;;;;;;5146320;27;20214;-67
2023/07/05 01:48:20;;;;;;;7.18;4.32;;;;;;;;;;5146307;27;20255;-67
2023/07/05 01:50:49;;;;;;;6.57;4.18;;;;;;;;;;5146071;27;20520;-67
2023/07/05 01:53:18;;;;;;;11.93;4.70;;;;;;;;;;5146008;27;20194;-67
2023/07/05 01:55:47;;;;;;;6.20;4.57;;;;;;;;;;5146203;27;20501;-67
2023/07/05 01:58:17;;;;;;;7.32;4.50;;;;;;;;;;5146073;27;20194;-67
2023/07/05 02:00:45;;;;;;;6.20;4.90;;;;;;;;;;5145764;27;20210;-67
2023/07/05 02:03:13;;;;;;;7.97;4.63;;;;;;;;;;5146033;27;20198;-67
2023/07/05 02:05:39;;;;;;;6.13;4.38;;;;;;;;;;5146173;27;20209;-68
2023/07/05 02:08:07;;;;;;;5.07;4.00;;;;;;;;;;5145867;27;20194;-68
2023/07/05 02:10:33;;;;;;;9.82;4.95;;;;;;;;;;5146027;27;20195;-68
2023/07/05 02:13:01;;;;;;;7.47;4.63;;;;;;;;;;5145735;27;20231;-68
2023/07/05 02:15:27;;;;;;;8.57;5.18;;;;;;;;;;5145650;27;20502;-68
2023/07/05 02:17:53;;;;;;;10.57;5.82;;;;;;;;;;5145550;27;20265;-68
2023/07/05 02:20:20;;;;;;;7.70;5.13;;;;;;;;;;5145465;27;20195;-68
2023/07/05 02:22:46;;;;;;;8.88;5.40;;;;;;;;;;5145651;27;20270;-67
2023/07/05 02:25:14;;;;;;;10.68;6.22;;;;;;;;;;5145546;27;20394;-67
2023/07/05 02:27:40;;;;;;;7.95;5.30;;;;;;;;;;5145168;27;20218;-67
2023/07/05 02:30:09;;;;;;;8.32;5.40;;;;;;;;;;5145513;27;20194;-67
2023/07/05 02:32:35;;;;;;;7.65;5.18;;;;;;;;;;5145025;27;20393;-67
2023/07/05 02:35:02;;;;;;;8.55;5.20;;;;;;;;;;5145198;27;20195;-67
2023/07/05 02:37:28;;;;;;;5.38;4.95;;;;;;;;;;5145817;27;20235;-67
2023/07/05 02:39:54;;;;;;;6.05;4.97;;;;;;;;;;5145128;27;20202;-67
2023/07/05 02:42:22;;;;;;;6.50;5.00;;;;;;;;;;5145113;27;20194;-67
2023/07/05 02:44:49;;;;;;;8.25;5.07;;;;;;;;;;5145139;27;20195;-67
2023/07/05 02:47:17;;;;;;;6.20;4.75;;;;;;;;;;5144939;27;20233;-67
2023/07/05 02:49:43;;;;;;;6.15;4.70;;;;;;;;;;5144958;27;20239;-67
2023/07/05 02:52:09;;;;;;;6.20;4.85;;;;;;;;;;5144819;27;20202;-67
2023/07/05 02:54:36;;;;;;;5.30;4.60;;;;;;;;;;5145140;27;20261;-67
2023/07/05 02:57:03;;;;;;;8.70;4.75;;;;;;;;;;5144996;27;20532;-67
2023/07/05 02:59:31;;;;;;;6.90;4.40;;;;;;;;;;5144885;27;20206;-67
2023/07/05 03:01:57;;;;;;;7.47;4.32;;;;;;;;;;5144520;27;20243;-67
2023/07/05 03:04:24;;;;;;;4.45;4.05;;;;;;;;;;5144408;27;20518;-67
2023/07/05 03:06:50;;;;;;;5.30;4.15;;;;;;;;;;5144661;27;20271;-67
2023/07/05 03:09:18;;;;;;;4.47;3.78;;;;;;;;;;5144777;27;20201;-67
2023/07/05 03:11:44;;;;;;;4.38;3.97;;;;;;;;;;5144422;27;20265;-67
2023/07/05 03:14:10;;;;;;;3.65;3.40;;;;;;;;;;5144527;27;20194;-67
2023/07/05 03:16:38;;;;;;;4.63;4.03;;;;;;;;;;5144306;27;20207;-68
2023/07/05 03:19:04;;;;;;;4.35;3.40;;;;;;;;;;5144614;27;20210;-67
2023/07/05 03:21:30;;;;;;;2.95;2.63;;;;;;;;;;5144464;27;20201;-67
2023/07/05 03:23:57;;;;;;;2.58;2.00;;;;;;;;;;5144299;27;20198;-67
2023/07/05 03:26:23;;;;;;;2.20;2.00;;;;;;;;;;5144251;27;20368;-67
2023/07/05 03:28:49;;;;;;;2.47;1.80;;;;;;;;;;5144275;27;20221;-67
2023/07/05 03:31:16;;;;;;;3.13;1.58;;;;;;;;;;5143840;27;20202;-67
2023/07/05 03:33:44;;;;;;;1.60;1.50;;;;;;;;;;5144379;27;20517;-67
2023/07/05 03:36:12;;;;;;;1.50;1.40;;;;;;;;;;5144260;27;20201;-67
2023/07/05 03:38:38;;;;;;;1.67;1.52;;;;;;;;;;5144014;27;20201;-67
2023/07/05 03:41:05;;;;;;;2.67;1.42;;;;;;;;;;5143763;27;20211;-67
2023/07/05 03:43:35;;;;;;;3.42;1.63;;;;;;;;;;5144065;27;20202;-67
2023/07/05 03:46:02;;;;;;;2.20;1.60;;;;;;;;;;5143636;27;20386;-67
2023/07/05 03:48:29;;;;;;;1.25;1.25;;;;;;;;;;5144019;27;20194;-67
2023/07/05 03:50:57;;;;;;;1.33;1.33;;;;;;;;;;5143811;27;20216;-67
2023/07/05 03:53:24;;;;;;;1.50;1.40;;;;;;;;;;5143803;27;20194;-67
2023/07/05 03:55:50;;;;;;;1.60;1.48;;;;;;;;;;5143926;27;20414;-67
2023/07/05 03:58:16;;;;;;;1.83;1.40;;;;;;;;;;5143716;27;20190;-67
2023/07/05 04:00:43;;;;;;;1.67;1.45;;;;;;;;;;5143336;27;20283;-67
2023/07/05 04:03:09;;;;;;;1.70;1.60;;;;;;;;;;5143860;27;20201;-67
2023/07/05 04:05:35;;;;;;;2.47;1.10;;;;;;;;;;5143614;27;20194;-67
2023/07/05 04:08:03;;;;;;;1.75;1.65;;;;;;;;;;5143593;27;20220;-67
2023/07/05 04:10:29;;;;;;;5.53;1.60;;;;;;;;;;5143643;27;20201;-67
2023/07/05 04:12:56;;;;;;;1.38;1.27;;;;;;;;;;5143718;27;20194;-67
2023/07/05 04:15:22;;;;;;;1.95;1.55;;;;;;;;;;5143812;27;20194;-70
2023/07/05 04:17:48;;;;;;;4.35;1.45;;;;;;;;;;5142692;27;20236;-70
2023/07/05 04:20:14;;;;;;;1.60;1.50;;;;;;;;;;5143608;27;20195;-70
2023/07/05 04:22:41;;;;;;;2.85;1.70;;;;;;;;;;5143593;27;20190;-70
2023/07/05 04:25:10;;;;;;;1.70;1.60;;;;;;;;;;5143405;27;20194;-70
2023/07/05 04:27:36;;;;;;;1.73;1.63;;;;;;;;;;5143114;27;20421;-70
2023/07/05 04:30:04;;;;;;;1.67;1.30;;;;;;;;;;5143616;27;20195;-70
2023/07/05 04:32:30;;;;;;;1.58;1.50;;;;;;;;;;5143110;27;20198;-70
2023/07/05 04:34:56;;;;;;;1.95;1.40;;;;;;;;;;5143558;27;20202;-70
2023/07/05 04:37:24;;;;;;;2.60;1.60;;;;;;;;;;5143205;27;20202;-70
2023/07/05 04:39:50;;;;;;;2.00;1.70;;;;;;;;;;5143223;27;20186;-70
2023/07/05 04:42:17;;;;;;;1.67;1.58;;;;;;;;;;5143016;27;20201;-70
2023/07/05 04:44:44;;;;;;;1.80;1.60;;;;;;;;;;5143259;27;20431;-70
2023/07/05 04:47:10;;;;;;;2.22;1.48;;;;;;;;;;5143221;27;20271;-69
2023/07/05 04:49:36;;;;;;;1.40;1.30;;;;;;;;;;5143181;27;20187;-69
2023/07/05 04:52:03;;;;;;;2.85;1.80;;;;;;;;;;5142929;27;20515;-69
2023/07/05 04:54:29;;;;;;;1.85;1.75;;;;;;;;;;5143004;27;20197;-69
2023/07/05 04:56:56;;;;;;;1.90;1.80;;;;;;;;;;5142903;27;20205;-69
2023/07/05 04:59:23;;;;;;;4.20;2.08;;;;;;;;;;5142815;27;20506;-69
2023/07/05 05:01:50;;;;;;;3.88;1.85;;;;;;;;;;5142856;27;20193;-69
2023/07/05 05:04:16;;;;;;;2.05;1.70;;;;;;;;;;5142921;27;20194;-69
2023/07/05 05:06:42;;;;;;;3.60;2.15;;;;;;;;;;5142753;27;20218;-70
2023/07/05 05:09:09;;;;;;;3.22;2.00;;;;;;;;;;5142809;27;20186;-70
2023/07/05 05:11:35;;;;;;;2.33;2.22;;;;;;;;;;5142695;27;20278;-70
2023/07/05 05:14:01;;;;;;;2.67;2.47;;;;;;;;;;5142673;27;20197;-70
2023/07/05 05:16:29;;;;;;;4.40;2.53;;;;;;;;;;5142808;27;20207;-70
2023/07/05 05:18:55;;;;;;;3.40;2.22;;;;;;;;;;5143075;27;20201;-70
2023/07/05 05:21:21;;;;;;;3.58;2.40;;;;;;;;;;5142729;27;20237;-70
2023/07/05 05:23:48;;;;;;;2.13;2.03;;;;;;;;;;5142766;27;20525;-70
2023/07/05 05:26:14;;;;;;;4.78;2.50;;;;;;;;;;5142998;27;20209;-70
2023/07/05 05:28:40;;;;;;;2.30;2.20;;;;;;;;;;5144404;27;20222;-70
2023/07/05 05:31:08;;;;;;;2.20;2.00;;;;;;;;;;5146495;27;20386;-70
2023/07/05 05:33:36;;;;;;;2.20;1.95;;;;;;;;;;5146954;27;20202;-70
2023/07/05 05:36:02;;;;;;;2.65;2.33;;;;;;;;;;5146542;27;20195;-69
2023/07/05 05:38:29;;;;;;;4.05;2.13;;;;;;;;;;5146463;27;20490;-69
2023/07/05 05:41:01;;;;;;;2.70;1.95;;;;;;;;;;5146530;27;20275;-69
2023/07/05 05:43:27;;;;;;;2.75;1.98;;;;;;;;;;5146602;27;20202;-69
2023/07/05 05:45:53;;;;;;;2.10;2.00;;;;;;;;;;5146580;27;20194;-69
2023/07/05 05:48:19;;;;;;;3.65;1.98;;;;;;;;;;5146311;27;20226;-70
2023/07/05 05:50:48;;;;;;;2.42;1.80;;;;;;;;;;5145965;27;20215;-70
2023/07/05 05:53:14;;;;;;;2.35;1.85;;;;;;;;;;5146470;27;20452;-70
2023/07/05 05:55:41;;;;;;;3.55;1.85;;;;;;;;;;5146292;27;20194;-70
2023/07/05 05:58:08;;;;;;;1.80;1.70;;;;;;;;;;5146054;27;20198;-70
2023/07/05 06:00:36;;;;;;;4.25;1.63;;;;;;;;;;5146400;27;20202;-70
2023/07/05 06:03:03;;;;;;;2.00;1.77;;;;;;;;;;5145854;27;20201;-70
2023/07/05 06:05:29;;;;;;;2.33;1.92;;;;;;;;;;5145768;27;20246;-56
2023/07/05 06:07:57;;;;;;;3.53;1.75;;;;;;;;;;5132224;27;20458;-57
2023/07/05 06:10:27;;;;;;;1.85;1.75;;;;;;;;;;5140561;27;20218;-57
2023/07/05 06:12:53;;;;;;;3.28;1.80;;;;;;;;;;5140089;27;20212;-57
2023/07/05 06:15:20;;;;;;;3.05;2.20;;;;;;;;;;5140611;27;20541;-56
2023/07/05 06:17:46;;;;;;;2.28;1.65;;;;;;;;;;5127748;27;20455;-58
2023/07/05 06:20:14;;;;;;;3.08;1.50;;;;;;;;;;5136902;27;20206;-57
2023/07/05 06:22:40;;;;;;;1.77;1.67;;;;;;;;;;5136607;27;20205;-57
2023/07/05 06:25:10;;;;;;;1.90;1.75;;;;;;;;;;5137730;27;20233;-58
2023/07/05 06:27:36;;;;;;;4.18;1.90;;;;;;;;;;5136714;27;20498;-57
2023/07/05 06:30:03;;;;;;;2.53;1.48;;;;;;;;;;5139145;27;20228;-57
2023/07/05 06:32:29;;;;;;;2.17;1.80;;;;;;;;;;5138171;27;20210;-57
2023/07/05 06:34:56;;;;;;;4.13;1.80;;;;;;;;;;5139086;27;20202;-58
2023/07/05 06:37:22;;;;;;;1.83;1.70;;;;;;;;;;5138427;27;20532;-57
2023/07/05 06:39:48;;;;;;;1.85;1.73;;;;;;;;;;5138405;27;20210;-57
2023/07/05 06:42:16;;;;;;;4.68;2.00;;;;;;;;;;5133024;27;20419;-56
2023/07/05 06:44:42;;;;;;;3.33;2.10;;;;;;;;;;5134909;27;20218;-57
2023/07/05 06:47:09;;;;;;;1.92;1.83;;;;;;;;;;5138170;27;20267;-56
2023/07/05 06:49:35;;;;;;;2.10;1.60;;;;;;;;;;5138746;27;20537;-57
2023/07/05 06:52:01;;;;;;;2.60;1.70;;;;;;;;;;5138654;27;20255;-58
2023/07/05 06:54:28;;;;;;;1.92;1.83;;;;;;;;;;5139280;27;20233;-56
2023/07/05 06:56:55;;;;;;;5.88;1.77;;;;;;;;;;5139071;27;20248;-58
2023/07/05 06:59:23;;;;;;;2.22;1.70;;;;;;;;;;5138307;27;20526;-58
2023/07/05 07:01:49;;;;;;;1.67;1.58;;;;;;;;;;5137676;27;20206;-57
2023/07/05 07:04:15;;;;;;;3.15;1.50;;;;;;;;;;5138519;27;20222;-58
2023/07/05 07:06:42;;;;;;;1.80;1.70;;;;;;;;;;5138426;27;20536;-57
2023/07/05 07:09:10;;;;;;;1.70;1.60;;;;;;;;;;5137880;27;20561;-57
2023/07/05 07:11:36;;;;;;;6.95;2.17;;;;;;;;;;5137710;27;20578;-56
2023/07/05 07:14:03;;;;;;;3.72;1.95;;;;;;;;;;5137697;27;20451;-56
2023/07/05 07:16:30;;;;;;;5.13;2.33;;;;;;;;;;5137851;27;20284;-57
2023/07/05 07:18:57;;;;;;;5.15;2.33;;;;;;;;;;5137624;27;20214;-57
2023/07/05 07:21:23;;;;;;;8.02;2.42;;;;;;;;;;5137741;27;20305;-60
2023/07/05 07:23:51;;;;;;;4.63;2.20;;;;;;;;;;5138781;27;20217;-60
2023/07/05 07:26:18;;;;;;;4.22;1.73;;;;;;;;;;5137884;27;20556;-57
2023/07/05 07:28:46;;;;;;;1.92;1.75;;;;;;;;;;5137413;27;20229;-60
2023/07/05 07:31:15;;;;;;;1.85;1.73;;;;;;;;;;5137364;27;20590;-61
2023/07/05 07:33:44;;;;;;;2.97;1.88;;;;;;;;;;5137863;27;20474;-59
2023/07/05 07:36:11;;;;;;;5.63;2.13;;;;;;;;;;5137537;27;20210;-59
2023/07/05 07:38:38;;;;;;;6.18;2.20;;;;;;;;;;5137697;27;20202;-60
2023/07/05 07:41:04;;;;;;;3.53;2.20;;;;;;;;;;5137285;27;20391;-58
2023/07/05 07:43:31;;;;;;;4.80;1.80;;;;;;;;;;5137303;27;20255;-56
2023/07/05 07:45:57;;;;;;;2.75;2.20;;;;;;;;;;5136959;27;20217;-57
2023/07/05 07:48:23;;;;;;;2.78;2.13;;;;;;;;;;5137585;27;20638;-58
2023/07/05 07:50:51;;;;;;;6.13;2.10;;;;;;;;;;5136983;27;20438;-55
2023/07/05 07:53:17;;;;;;;1.73;1.63;;;;;;;;;;5137393;27;20214;-58
2023/07/05 07:55:43;;;;;;;3.35;1.88;;;;;;;;;;5137245;27;20255;-58
2023/07/05 07:58:10;;;;;;;2.10;1.80;;;;;;;;;;5137420;27;20206;-58
2023/07/05 08:00:36;;;;;;;2.53;1.70;;;;;;;;;;5137509;27;20263;-58
2023/07/05 08:03:02;;;;;;;2.45;1.20;;;;;;;;;;5136693;27;20210;-57
2023/07/05 08:05:29;;;;;;;3.08;1.50;;;;;;;;;;5137236;27;20217;-58
2023/07/05 08:07:57;;;;;;;2.78;2.00;;;;;;;;;;5136952;27;20233;-58
2023/07/05 08:10:23;;;;;;;2.47;1.77;;;;;;;;;;5137243;27;20216;-58
2023/07/05 08:12:49;;;;;;;1.75;1.65;;;;;;;;;;5137092;27;20396;-58
2023/07/05 08:15:16;;;;;;;5.53;1.90;;;;;;;;;;5136361;27;20210;-57
2023/07/05 08:17:42;;;;;;;2.25;2.05;;;;;;;;;;5137133;27;20635;-59
2023/07/05 08:20:09;;;;;;;2.70;1.80;;;;;;;;;;5137335;27;20217;-59
2023/07/05 08:22:35;;;;;;;4.30;1.30;;;;;;;;;;5137432;27;20218;-59
2023/07/05 08:25:03;;;;;;;3.58;1.77;;;;;;;;;;5137337;27;20267;-57
2023/07/05 08:27:29;;;;;;;1.80;1.50;;;;;;;;;;5136772;27;21145;-57
2023/07/05 08:29:55;;;;;;;1.80;1.70;;;;;;;;;;5136424;27;20430;-58
2023/07/05 08:32:21;;;;;;;1.58;1.40;;;;;;;;;;5135958;27;20210;-57
2023/07/05 08:34:48;;;;;;;2.13;1.50;;;;;;;;;;5137555;27;20206;-56
2023/07/05 08:37:14;;;;;;;2.15;1.50;;;;;;;;;;5136816;27;20214;-57
2023/07/05 08:39:40;;;;;;;1.95;1.40;;;;;;;;;;5136531;27;20206;-57
2023/07/05 08:42:17;;;;;;;1.55;1.45;;;;;;;;;;5137313;27;20214;-56
2023/07/05 08:44:47;;;;;;;5.63;1.98;;;;;;;;;;5136969;27;20523;-57
2023/07/05 08:47:19;;;;;;;2.28;2.08;;;;;;;;;;5136189;27;20214;-57
2023/07/05 08:49:46;;;;;;;3.88;1.60;;;;;;;;;;5133828;28;20230;-56
2023/07/05 08:52:15;;;;;;;1.90;1.80;;;;;;;;;;5136451;27;20217;-57
2023/07/05 08:54:42;;;;;;;6.28;1.88;;;;;;;;;;5136526;27;20549;-57
2023/07/05 08:57:10;;;;;;;4.75;1.75;;;;;;;;;;5136466;27;20217;-57
2023/07/05 08:59:42;;;;;;;3.95;1.85;;;;;;;;;;5136333;27;20214;-58
2023/07/05 09:02:11;;;;;;;2.28;1.77;;;;;;;;;;5135898;27;20218;-60
2023/07/05 09:04:37;;;;;;;1.40;1.40;;;;;;;;;;5140275;27;20214;-58
2023/07/05 09:07:06;;;;;;;1.50;1.40;;;;;;;;;;5140679;27;20210;-58
2023/07/05 09:09:43;;;;;;;1.90;1.70;;;;;;;;;;5140208;27;20233;-59
2023/07/05 09:12:14;;;;;;;1.80;1.70;;;;;;;;;;5139661;27;20564;-58
2023/07/05 09:14:51;;;;;;;1.23;1.23;;;;;;;;;;5140194;27;20213;-59
2023/07/05 09:17:19;;;;;;;2.05;1.30;;;;;;;;;;5139999;27;20214;-59
2023/07/05 09:19:49;;;;;;;1.40;1.30;;;;;;;;;;5139839;27;20411;-58
2023/07/05 09:22:19;;;;;;;1.25;1.17;;;;;;;;;;5136650;27;20394;-58
2023/07/05 09:24:46;;;;;;;1.30;1.30;;;;;;;;;;5140738;27;20210;-57
2023/07/05 09:27:15;;;;;;;1.55;1.45;;;;;;;;;;5139957;27;20226;-58
2023/07/05 09:29:46;;;;;;;2.15;1.20;;;;;;;;;;5139803;27;20236;-58
2023/07/05 09:32:13;;;;;;;1.30;1.23;;;;;;;;;;5139742;27;20287;-57
2023/07/05 09:34:42;;;;;;;2.10;1.10;;;;;;;;;;5140253;27;20216;-57
2023/07/05 09:37:12;;;;;;;1.88;1.52;;;;;;;;;;5140133;27;20441;-57
2023/07/05 09:39:42;;;;;;;1.08;1.00;;;;;;;;;;5139991;27;20206;-57
2023/07/05 09:42:12;;;;;;;1.70;1.35;;;;;;;;;;5139879;27;20372;-58
2023/07/05 09:44:38;;;;;;;4.13;1.30;;;;;;;;;;5139436;27;20217;-57
2023/07/05 09:47:06;;;;;;;2.50;1.40;;;;;;;;;;5139925;27;20218;-57
2023/07/05 09:49:32;;;;;;;1.70;1.48;;;;;;;;;;5139819;27;20230;-57
2023/07/05 09:51:59;;;;;;;1.30;1.30;;;;;;;;;;5139965;27;20210;-57
2023/07/05 09:54:29;;;;;;;1.38;1.35;;;;;;;;;;5140329;27;20211;-58
2023/07/05 09:56:56;;;;;;;3.40;1.40;;;;;;;;;;5139370;27;20246;-58
2023/07/05 09:59:23;;;;;;;1.80;1.77;;;;;;;;;;5139664;27;20214;-55
2023/07/05 10:01:51;;;;;;;3.88;1.80;;;;;;;;;;5139631;27;20214;-57
2023/07/05 10:04:18;;;;;;;1.73;1.67;;;;;;;;;;5139690;27;20217;-57
2023/07/05 10:06:46;;;;;;;3.33;1.70;;;;;;;;;;5140025;27;20451;-57
2023/07/05 10:09:14;;;;;;;2.92;1.70;;;;;;;;;;5139188;27;20218;-57
2023/07/05 10:11:43;;;;;;;1.92;1.60;;;;;;;;;;5139357;27;20455;-57
2023/07/05 10:14:13;;;;;;;2.40;1.50;;;;;;;;;;5139103;27;20214;-57
2023/07/05 10:16:48;;;;;;;2.30;2.00;;;;;;;;;;5139101;27;20461;-57
2023/07/05 10:19:22;;;;;;;2.40;2.20;;;;;;;;;;5140029;27;20213;-57
2023/07/05 10:21:48;;;;;;;2.33;2.13;;;;;;;;;;5139314;27;20442;-56
2023/07/05 10:24:17;;;;;;;2.33;2.10;;;;;;;;;;5139659;27;20458;-57
2023/07/05 10:26:43;;;;;;;2.25;2.03;;;;;;;;;;5139784;27;20216;-57
2023/07/05 10:29:09;;;;;;;2.40;2.30;;;;;;;;;;5139113;27;20585;-57
2023/07/05 10:31:36;;;;;;;5.18;2.20;;;;;;;;;;5138512;27;20210;-57
2023/07/05 10:34:06;;;;;;;2.20;2.10;;;;;;;;;;5139159;27;20528;-57
2023/07/05 10:36:33;;;;;;;2.28;2.17;;;;;;;;;;5139197;27;20251;-57
2023/07/05 10:39:00;;;;;;;2.38;2.28;;;;;;;;;;5139063;27;20539;-57
2023/07/05 10:41:34;;;;;;;3.42;2.03;;;;;;;;;;5139161;27;20216;-57
2023/07/05 10:44:02;;;;;;;3.58;2.30;;;;;;;;;;5139438;27;20201;-57
2023/07/05 10:46:29;;;;;;;2.85;2.47;;;;;;;;;;5138635;27;20210;-57
2023/07/05 10:48:56;;;;;;;2.00;1.90;;;;;;;;;;5138427;27;20592;-57
2023/07/05 10:51:23;;;;;;;2.42;2.22;;;;;;;;;;5139150;27;20405;-56
2023/07/05 10:53:53;;;;;;;2.13;2.03;;;;;;;;;;5138682;27;20210;-57
2023/07/05 10:56:21;;;;;;;3.13;2.00;;;;;;;;;;5138531;27;20658;-56
2023/07/05 10:58:51;;;;;;;3.17;2.47;;;;;;;;;;5138133;27;20221;-56
2023/07/05 11:01:19;;;;;;;2.20;2.10;;;;;;;;;;5137965;27;20220;-57
2023/07/05 11:03:48;;;;;;;2.42;2.33;;;;;;;;;;5138247;27;20210;-57
2023/07/05 11:06:15;;;;;;;2.67;2.47;;;;;;;;;;5138228;27;20205;-57
2023/07/05 11:08:43;;;;;;;2.28;2.17;;;;;;;;;;5138337;27;20233;-55
2023/07/05 11:11:13;;;;;;;5.93;2.42;;;;;;;;;;5137932;27;20255;-57
2023/07/05 11:13:39;;;;;;;2.45;2.22;;;;;;;;;;5137684;27;20306;-57
2023/07/05 11:16:05;;;;;;;2.80;2.60;;;;;;;;;;5137690;27;20213;-57
2023/07/05 11:18:32;;;;;;;2.58;2.42;;;;;;;;;;5138047;27;20521;-58
2023/07/05 11:20:59;;;;;;;2.65;2.42;;;;;;;;;;5137901;27;20217;-57
2023/07/05 11:23:44;;;;;;;2.55;2.35;;;;;;;;;;5137810;27;20254;-57
2023/07/05 11:26:28;;;;;;;1.85;1.80;;;;;;;;;;5135540;27;20217;-57
2023/07/05 11:28:54;;;;;;;6.93;2.58;;;;;;;;;;5137358;27;20221;-57
2023/07/05 11:31:35;;;;;;;2.30;2.20;;;;;;;;;;5136944;27;20210;-57
2023/07/05 11:34:20;;;;;;;2.35;2.25;;;;;;;;;;5137841;27;20416;-57
2023/07/05 11:36:47;;;;;;;1.95;1.85;;;;;;;;;;5136751;27;20205;-57
2023/07/05 11:39:31;;;;;;;2.50;1.80;;;;;;;;;;5137583;27;20462;-57
2023/07/05 11:42:19;;;;;;;2.45;2.35;;;;;;;;;;5137706;27;20405;-58
2023/07/05 11:44:47;;;;;;;4.68;2.40;;;;;;;;;;5137040;27;20209;-59
2023/07/05 11:47:38;;;;;;;2.60;2.50;;;;;;;;;;5137082;27;20209;-58
2023/07/05 11:50:06;;;;;;;3.53;2.55;;;;;;;;;;5136692;27;20245;-58
2023/07/05 11:52:33;;;;;;;3.55;2.40;;;;;;;;;;5137724;27;20426;-58
2023/07/05 11:55:05;;;;;;;4.75;2.80;;;;;;;;;;5137253;27;20586;-57
2023/07/05 11:57:34;;;;;;;2.80;2.70;;;;;;;;;;5137282;27;20213;-57
2023/07/05 12:00:09;;;;;;;2.50;2.38;;;;;;;;;;5136946;27;20221;-57
2023/07/05 12:02:45;;;;;;;2.90;2.70;;;;;;;;;;5137061;27;20210;-57
2023/07/05 12:05:14;;;;;;;2.65;2.55;;;;;;;;;;5137577;27;20280;-58
2023/07/05 12:07:42;;;;;;;3.20;2.50;;;;;;;;;;5140204;27;20258;-58
2023/07/05 12:10:10;;;;;;;2.78;2.55;;;;;;;;;;5140371;27;20259;-57
2023/07/05 12:12:40;;;;;;;2.95;2.75;;;;;;;;;;5140654;27;20423;-58
2023/07/05 12:15:09;;;;;;;2.55;2.40;;;;;;;;;;5141061;27;20213;-58
2023/07/05 12:17:37;;;;;;;2.40;2.30;;;;;;;;;;5140036;27;20442;-58
2023/07/05 12:20:07;;;;;;;2.38;2.28;;;;;;;;;;5140344;27;20202;-57
2023/07/05 12:22:33;;;;;;;2.50;2.40;;;;;;;;;;5140255;27;20436;-56
2023/07/05 12:25:00;;;;;;;2.75;2.00;;;;;;;;;;5140845;27;20205;-56
2023/07/05 12:27:27;;;;;;;2.50;2.40;;;;;;;;;;5140407;27;20234;-57
2023/07/05 12:29:56;;;;;;;2.35;2.25;;;;;;;;;;5140479;27;20230;-56
2023/07/05 12:32:24;;;;;;;2.40;2.20;;;;;;;;;;5140406;27;20277;-56
2023/07/05 12:35:09;;;;;;;2.00;1.90;;;;;;;;;;5140549;27;20235;-56
2023/07/05 12:37:35;;;;;;;2.20;1.67;;;;;;;;;;5138866;27;20206;-58
2023/07/05 12:40:12;;;;;;;2.05;1.95;;;;;;;;;;5140607;27;20206;-58
2023/07/05 12:42:45;;;;;;;2.95;2.10;;;;;;;;;;5137242;28;20202;-58
2023/07/05 12:45:15;;;;;;;2.20;1.98;;;;;;;;;;5140400;27;20206;-58
2023/07/05 12:47:41;;;;;;;2.78;2.03;;;;;;;;;;5136166;28;20247;-58
2023/07/05 12:50:08;;;;;;;1.85;1.75;;;;;;;;;;5140094;27;20263;-58
2023/07/05 12:52:34;;;;;;;2.08;1.88;;;;;;;;;;5140110;27;20206;-57
2023/07/05 12:55:00;;;;;;;3.60;2.28;;;;;;;;;;5140700;27;20209;-58
2023/07/05 12:57:28;;;;;;;2.60;2.28;;;;;;;;;;5131834;27;20362;-57
2023/07/05 12:59:55;;;;;;;4.78;2.58;;;;;;;;;;5140031;27;20382;-58
2023/07/05 13:02:26;;;;;;;2.20;2.15;;;;;;;;;;5139693;27;20212;-57
2023/07/05 13:04:52;;;;;;;2.55;2.35;;;;;;;;;;5139713;27;20202;-59
2023/07/05 13:07:21;;;;;;;2.50;2.30;;;;;;;;;;5140062;27;20544;-58
2023/07/05 13:09:47;;;;;;;3.33;1.95;;;;;;;;;;5140044;27;20218;-58
2023/07/05 13:12:14;;;;;;;2.42;2.00;;;;;;;;;;5139613;27;20220;-58
2023/07/05 13:14:43;;;;;;;2.78;2.35;;;;;;;;;;5139343;27;20494;-58
2023/07/05 13:17:16;;;;;;;2.25;2.00;;;;;;;;;;5139618;27;20206;-58
2023/07/05 13:19:45;;;;;;;2.70;2.50;;;;;;;;;;5137296;28;20205;-58
2023/07/05 13:22:15;;;;;;;6.53;2.45;;;;;;;;;;5139620;27;20205;-58
2023/07/05 13:24:45;;;;;;;2.10;2.00;;;;;;;;;;5132230;28;20486;-58
2023/07/05 13:27:14;;;;;;;2.30;2.20;;;;;;;;;;5139913;27;20226;-58
2023/07/05 13:29:41;;;;;;;2.10;2.00;;;;;;;;;;5139819;27;20342;-58
2023/07/05 13:32:21;;;;;;;2.40;2.20;;;;;;;;;;5137783;28;20206;-57
2023/07/05 13:34:48;;;;;;;2.30;2.03;;;;;;;;;;5132509;28;20481;-57
2023/07/05 13:37:16;;;;;;;2.22;2.00;;;;;;;;;;5138945;27;20281;-58
2023/07/05 13:39:42;;;;;;;2.00;2.00;;;;;;;;;;5133999;28;20198;-58
2023/07/05 13:42:09;;;;;;;4.25;2.35;;;;;;;;;;5136200;27;20213;-58
2023/07/05 13:44:35;;;;;;;2.08;1.90;;;;;;;;;;5134991;27;20214;-58
2023/07/05 13:47:02;;;;;;;1.83;1.73;;;;;;;;;;5136099;27;20214;-58
2023/07/05 13:49:28;;;;;;;1.60;1.60;;;;;;;;;;5137772;27;20226;-58
2023/07/05 13:52:00;;;;;;;1.88;1.77;;;;;;;;;;5139980;27;20209;-58
2023/07/05 13:54:32;;;;;;;4.20;2.03;;;;;;;;;;5139964;27;20210;-59
2023/07/05 13:56:59;;;;;;;3.63;1.85;;;;;;;;;;5131375;27;20516;-59
2023/07/05 13:59:25;;;;;;;2.53;2.33;;;;;;;;;;5139729;27;20528;-58
2023/07/05 14:01:51;;;;;;;3.65;1.73;;;;;;;;;;5139457;27;20318;-58
2023/07/05 14:04:18;;;;;;;2.08;2.05;;;;;;;;;;5139487;27;20206;-59
2023/07/05 14:06:44;;;;;;;2.25;2.08;;;;;;;;;;5138971;27;20254;-59
2023/07/05 14:09:12;;;;;;;1.85;1.75;;;;;;;;;;5139316;27;20598;-58
2023/07/05 14:11:40;;;;;;;4.50;1.70;;;;;;;;;;5139147;27;20221;-55
2023/07/05 14:14:06;;;;;;;2.03;1.92;;;;;;;;;;5139660;27;20213;-58
2023/07/05 14:16:33;;;;;;;1.83;1.73;;;;;;;;;;5139324;27;20221;-56
2023/07/05 14:18:59;;;;;;;2.15;2.05;;;;;;;;;;5138385;27;20210;-58
2023/07/05 14:21:28;;;;;;;2.00;1.90;;;;;;;;;;5138976;27;20394;-58
2023/07/05 14:23:55;;;;;;;3.22;1.50;;;;;;;;;;5139289;27;20245;-58
2023/07/05 14:26:24;;;;;;;1.77;1.67;;;;;;;;;;5139717;27;20217;-59
2023/07/05 14:28:50;;;;;;;1.48;1.48;;;;;;;;;;5139100;27;20628;-57
2023/07/05 14:31:16;;;;;;;3.90;1.92;;;;;;;;;;5138133;27;20225;-59
2023/07/05 14:33:43;;;;;;;2.03;1.65;;;;;;;;;;5139520;27;20210;-59
2023/07/05 14:36:10;;;;;;;2.05;1.77;;;;;;;;;;5139065;27;20237;-58
2023/07/05 14:38:36;;;;;;;2.60;1.42;;;;;;;;;;5139083;27;20219;-58
2023/07/05 14:41:02;;;;;;;2.70;1.80;;;;;;;;;;5139043;27;20449;-57
2023/07/05 14:43:31;;;;;;;4.03;1.73;;;;;;;;;;5139119;27;20209;-59
2023/07/05 14:45:57;;;;;;;1.77;1.70;;;;;;;;;;5138429;27;20216;-60
2023/07/05 14:48:23;;;;;;;2.70;2.03;;;;;;;;;;5139038;27;20267;-59